Time;durP1;ratioP1;P1;durP2;ratioP2;P2;SDS_P1;SDS_P2;PMS_P1;PMS_P2;Temp;Humidity;BMP_temperature;BMP_pressure;BME280_temperature;BME280_humidity;BME280_pressure;Samples;Min_cycle;Max_cycle;Signal;HPM_P1;HPM_P2
2023/06/18 00:00:42;;;;;;;;;0.00;0.00;;;;;-146.67;100.00;57155.34;5124554;28;9884;-83
2023/06/18 00:03:08;;;;;;;;;0.00;0.00;;;;;-146.67;100.00;57155.34;5126022;28;8783;-83
2023/06/18 00:05:33;;;;;;;;;0.00;0.00;;;;;-146.67;28.07;72807.28;5113012;28;61946;-83
2023/06/18 00:07:58;;;;;;;;;0.00;0.00;;;;;-146.67;100.00;57155.34;5083369;28;62213;-83
2023/06/18 00:10:24;;;;;;;;;0.00;0.00;;;;;-146.67;100.00;57155.34;5112131;28;61821;-83
2023/06/18 00:12:50;;;;;;;;;0.00;0.00;;;;;-146.67;100.00;57155.34;5110243;28;61980;-83
2023/06/18 00:15:15;;;;;;;;;0.00;0.00;;;;;-146.67;100.00;57155.34;5125836;28;8844;-83
2023/06/18 00:17:41;;;;;;;;;0.00;0.00;;;;;-146.67;28.00;72799.28;5122454;28;42350;-84
2023/06/18 00:20:07;;;;;;;;;0.00;0.00;;;;;-146.67;100.00;57155.34;5109042;28;63020;-84
2023/06/18 00:22:36;;;;;;;;;0.00;0.00;;;;;-146.67;100.00;57155.34;5126072;28;8845;-83
2023/06/18 00:25:02;;;;;;;;;0.00;0.00;;;;;-146.67;100.00;57155.34;5124577;28;8848;-83
2023/06/18 00:27:27;;;;;;;;;0.00;0.00;;;;;-146.67;100.00;57155.34;5125989;28;8807;-84
2023/06/18 00:29:52;;;;;;;;;0.00;0.00;;;;;-146.67;100.00;57155.34;5123880;28;11378;-83
2023/06/18 00:32:18;;;;;;;;;0.00;0.00;;;;;-146.67;100.00;57155.34;5124442;28;8828;-83
2023/06/18 00:34:44;;;;;;;;;0.00;0.00;;;;;-146.67;100.00;57155.34;5124079;28;8795;-83
2023/06/18 00:37:10;;;;;;;;;0.00;0.00;;;;;-146.67;100.00;57155.34;5107890;28;61902;-83
2023/06/18 00:39:37;;;;;;;;;0.00;0.00;;;;;-146.67;100.00;57155.34;5116112;28;61707;-83
2023/06/18 00:42:05;;;;;;;;;0.00;0.00;;;;;-146.67;28.24;72803.28;5114400;28;61390;-84
2023/06/18 00:44:31;;;;;;;;;0.00;0.00;;;;;-146.67;28.53;72827.22;5085591;27;61946;-83
2023/06/18 00:46:59;;;;;;;;;0.00;0.00;;;;;-146.67;28.85;72843.19;5082600;28;61829;-83
2023/06/18 00:49:26;;;;;;;;;0.00;0.00;;;;;-146.67;28.33;72851.19;5078309;28;64058;-83
2023/06/18 00:51:52;;;;;;;;;0.00;0.00;;;;;-146.67;28.86;72861.16;5067545;28;61930;-83
2023/06/18 00:54:18;;;;;;;;;0.00;0.00;;;;;-146.67;100.00;57155.34;5081072;28;61349;-83
2023/06/18 00:56:50;;;;;;;;;0.00;0.00;;;;;-146.67;28.41;72865.16;5088241;28;61706;-84
2023/06/18 00:59:22;;;;;;;;;0.00;0.00;;;;;-146.67;100.00;57155.34;5105821;28;63787;-81
2023/06/18 01:01:56;;;;;;;;;0.00;0.00;;;;;-146.67;100.00;57155.34;5103614;28;8843;-80
2023/06/18 01:04:26;;;;;;;;;0.00;0.00;;;;;-146.67;100.00;57155.34;5110208;28;8763;-81
2023/06/18 01:06:57;;;;;;;;;4.00;4.00;;;;;-146.67;100.00;57155.34;5123548;28;8779;-80
2023/06/18 01:09:24;;;;;;;;;0.00;0.00;;;;;-146.67;100.00;57155.34;5124232;28;8790;-81
2023/06/18 01:11:53;;;;;;;;;0.00;0.00;;;;;-146.67;100.00;57155.34;5123910;28;8876;-81
2023/06/18 01:14:25;;;;;;;;;0.00;0.00;;;;;-146.67;100.00;57155.34;5120815;28;8824;-81
2023/06/18 01:16:53;;;;;;;;;0.00;0.00;;;;;-146.67;100.00;57155.34;5104677;28;8894;-81
2023/06/18 01:19:49;;;;;;;;;0.00;0.00;;;;;-146.67;100.00;57155.34;5119417;28;9980;-81
2023/06/18 01:22:33;;;;;;;;;0.00;0.00;;;;;-146.67;100.00;57155.34;5105708;28;8874;-81
2023/06/18 01:25:02;;;;;;;;;0.00;0.00;;;;;-146.67;100.00;57155.34;5125205;28;8787;-81
2023/06/18 01:27:33;;;;;;;;;0.00;0.00;;;;;-146.67;100.00;57155.34;5123362;28;8731;-82
2023/06/18 01:30:00;;;;;;;;;0.00;0.00;;;;;-146.67;100.00;57155.34;5124918;28;8745;-82
2023/06/18 01:32:26;;;;;;;;;0.00;0.00;;;;;-146.67;100.00;57155.34;5123126;28;8825;-82
2023/06/18 01:34:57;;;;;;;;;0.00;0.00;;;;;-146.67;100.00;57155.34;5117150;28;8806;-82
2023/06/18 01:37:50;;;;;;;;;0.00;0.00;;;;;-146.67;100.00;57155.34;5137155;27;9765;-82
2023/06/18 01:40:31;;;;;;;;;0.00;0.00;;;;;-146.67;100.00;57155.34;5113974;28;8771;-82
2023/06/18 01:43:20;;;;;;;;;0.00;0.00;;;;;-146.67;100.00;57155.34;5123517;28;8732;-82
2023/06/18 01:45:50;;;;;;;;;0.00;0.00;;;;;-146.67;100.00;57155.34;5114873;28;8791;-81
2023/06/18 01:48:20;;;;;;;;;0.00;0.00;;;;;-146.67;100.00;57155.34;5140209;27;8783;-81
2023/06/18 01:50:47;;;;;;;;;0.00;0.00;;;;;-146.67;100.00;57155.34;5124091;28;8782;-82
2023/06/18 01:53:16;;;;;;;;;0.00;0.00;;;;;-146.67;100.00;57155.34;5123136;28;8787;-82
2023/06/18 01:55:45;;;;;;;;;0.00;0.00;;;;;-146.67;100.00;57155.34;5124369;28;8724;-82
2023/06/18 01:58:14;;;;;;;;;0.00;0.00;;;;;-146.67;100.00;57155.34;5123180;28;8765;-82
2023/06/18 02:00:41;;;;;;;;;0.00;0.00;;;;;-146.67;100.00;57155.34;5122708;28;10116;-82
2023/06/18 02:03:07;;;;;;;;;0.00;0.00;;;;;-146.67;100.00;57155.34;5122810;28;8758;-82
2023/06/18 02:05:33;;;;;;;;;0.00;0.00;;;;;-146.67;100.00;57155.34;5122124;28;8817;-82
2023/06/18 02:07:58;;;;;;;;;0.00;0.00;;;;;-146.67;100.00;57155.34;5122497;28;9084;-82
2023/06/18 02:10:24;;;;;;;;;0.00;0.00;;;;;-146.67;100.00;57155.34;5124386;28;8815;-82
2023/06/18 02:12:49;;;;;;;;;0.00;0.00;;;;;-146.67;100.00;57155.34;5122052;28;8779;-82
2023/06/18 02:15:15;;;;;;;;;0.00;0.00;;;;;-146.67;100.00;57155.34;5153398;27;8805;-82
2023/06/18 02:17:40;;;;;;;;;0.00;0.00;;;;;-146.67;100.00;57155.34;5143143;27;8824;-82
2023/06/18 02:20:06;;;;;;;;;0.00;0.00;;;;;-146.67;100.00;57155.34;5127859;27;9952;-82
2023/06/18 02:22:32;;;;;;;;;0.00;0.00;;;;;-146.67;100.00;57155.34;5122833;28;8794;-82
2023/06/18 02:24:58;;;;;;;;;0.00;0.00;;;;;-146.67;100.00;57155.34;5124178;28;8792;-82
2023/06/18 02:27:23;;;;;;;;;0.00;0.00;;;;;-146.67;100.00;57155.34;5122652;28;8872;-82
2023/06/18 02:29:48;;;;;;;;;0.00;0.00;;;;;-146.67;100.00;57155.34;5122078;28;9879;-82
2023/06/18 02:32:14;;;;;;;;;0.00;0.00;;;;;-146.67;100.00;57155.34;5122524;28;8808;-81
2023/06/18 02:34:40;;;;;;;;;0.00;0.00;;;;;-146.67;100.00;57155.34;5123848;27;8781;-82
2023/06/18 02:37:06;;;;;;;;;0.00;0.00;;;;;-146.67;100.00;57155.34;5118921;28;8873;-82
2023/06/18 02:39:32;;;;;;;;;0.00;0.00;;;;;-146.67;100.00;57155.34;5106580;28;10132;-82
2023/06/18 02:41:58;;;;;;;;;0.00;0.00;;;;;-146.67;100.00;57155.34;5122540;28;8859;-82
2023/06/18 02:44:24;;;;;;;;;0.00;0.00;;;;;-146.67;100.00;57155.34;5123244;28;8771;-82
2023/06/18 02:46:50;;;;;;;;;0.00;0.00;;;;;-146.67;100.00;57155.34;5122638;28;8798;-82
2023/06/18 02:49:15;;;;;;;;;0.00;0.00;;;;;-146.67;100.00;57155.34;5122602;28;8888;-82
2023/06/18 02:51:41;;;;;;;;;0.00;0.00;;;;;-146.67;100.00;57155.34;5118076;28;8814;-82
2023/06/18 02:54:06;;;;;;;;;0.00;0.00;;;;;-146.67;100.00;57155.34;5101981;28;8859;-81
2023/06/18 02:56:32;;;;;;;;;0.00;0.00;;;;;-146.67;100.00;57155.34;5101862;28;9008;-81
2023/06/18 02:58:57;;;;;;;;;0.00;0.00;;;;;-146.67;100.00;57155.34;5102609;28;8789;-81
2023/06/18 03:01:26;;;;;;;;;0.00;0.00;;;;;-146.67;100.00;57155.34;5101842;28;8890;-82
2023/06/18 03:03:53;;;;;;;;;0.00;0.00;;;;;-146.67;100.00;57155.34;5101539;28;8888;-81
2023/06/18 03:06:19;;;;;;;;;0.00;0.00;;;;;-146.67;100.00;57155.34;5101472;28;9156;-82
2023/06/18 03:08:46;;;;;;;;;0.00;0.00;;;;;-146.67;100.00;57155.34;5100822;28;11251;-82
2023/06/18 03:11:11;;;;;;;;;0.00;0.00;;;;;-146.67;100.00;57155.34;5101736;28;8793;-82
2023/06/18 03:13:37;;;;;;;;;0.00;0.00;;;;;-146.67;100.00;57155.34;5101578;28;8809;-81
2023/06/18 03:16:02;;;;;;;;;0.00;0.00;;;;;-146.67;100.00;57155.34;5101581;28;8822;-81
2023/06/18 03:18:28;;;;;;;;;0.00;0.00;;;;;-146.67;100.00;57155.34;5101327;28;9916;-81
2023/06/18 03:20:53;;;;;;;;;0.00;0.00;;;;;-146.67;100.00;57155.34;5102411;28;9062;-81
2023/06/18 03:23:20;;;;;;;;;0.00;0.00;;;;;-146.67;100.00;57155.34;5102960;28;8805;-81
2023/06/18 03:25:45;;;;;;;;;0.00;0.00;;;;;-146.67;100.00;57155.34;5101550;28;8770;-81
2023/06/18 03:28:11;;;;;;;;;0.00;0.00;;;;;-146.67;100.00;57155.34;5100978;28;9985;-81
2023/06/18 03:30:36;;;;;;;;;0.00;0.00;;;;;-146.67;100.00;57155.34;5101367;28;9572;-81
2023/06/18 03:33:02;;;;;;;;;0.00;0.00;;;;;-146.67;100.00;57155.34;5102744;28;8793;-81
2023/06/18 03:35:28;;;;;;;;;0.00;0.00;;;;;-146.67;100.00;57155.34;5102308;28;8752;-81
2023/06/18 03:37:54;;;;;;;;;0.00;0.00;;;;;-146.67;100.00;57155.34;5102021;28;8757;-81
2023/06/18 03:40:19;;;;;;;;;0.00;0.00;;;;;-146.67;100.00;57155.34;5112683;28;8917;-82
2023/06/18 03:42:44;;;;;;;;;0.00;0.00;;;;;-146.67;100.00;57155.34;5101018;28;8924;-82
2023/06/18 03:45:10;;;;;;;;;0.00;0.00;;;;;-146.67;100.00;57155.34;5101232;28;8840;-82
2023/06/18 03:47:36;;;;;;;;;0.00;0.00;;;;;-146.67;100.00;57155.34;5118206;28;8791;-82
2023/06/18 03:50:01;;;;;;;;;0.00;0.00;;;;;-146.67;100.00;57155.34;5121236;28;8799;-82
2023/06/18 03:52:26;;;;;;;;;0.00;0.00;;;;;-146.67;100.00;57155.34;5122794;27;9624;-82
2023/06/18 03:54:52;;;;;;;;;0.00;0.00;;;;;-146.67;100.00;57155.34;5121616;28;8817;-82
2023/06/18 03:57:17;;;;;;;;;0.00;0.00;;;;;-146.67;100.00;57155.34;5121011;28;10081;-82
2023/06/18 03:59:43;;;;;;;;;0.00;0.00;;;;;-146.67;100.00;57155.34;5121623;28;8819;-82
2023/06/18 04:02:08;;;;;;;;;0.00;0.00;;;;;-146.67;100.00;57155.34;5121310;28;8823;-82
2023/06/18 04:04:34;;;;;;;;;0.00;0.00;;;;;-146.67;100.00;57155.34;5123163;27;8810;-82
2023/06/18 04:07:00;;;;;;;;;0.00;0.00;;;;;-146.67;100.00;57155.34;5104038;28;9995;-82
2023/06/18 04:09:25;;;;;;;;;0.00;0.00;;;;;-146.67;100.00;57155.34;5103937;28;8826;-82
2023/06/18 04:11:51;;;;;;;;;0.00;0.00;;;;;-146.67;100.00;57155.34;5105575;28;8794;-82
2023/06/18 04:14:16;;;;;;;;;0.00;0.00;;;;;-146.67;100.00;57155.34;5104214;28;8809;-82
2023/06/18 04:16:42;;;;;;;;;0.00;0.00;;;;;-146.67;100.00;57155.34;5104456;28;10953;-82
2023/06/18 04:19:07;;;;;;;;;0.00;0.00;;;;;-146.67;100.00;57155.34;5104072;28;8801;-83
2023/06/18 04:21:35;;;;;;;;;0.00;0.00;;;;;-146.67;100.00;57155.34;5104008;28;9603;-82
2023/06/18 04:24:02;;;;;;;;;0.00;0.00;;;;;-146.67;100.00;57155.34;5104118;28;8784;-82
2023/06/18 04:26:27;;;;;;;;;0.00;0.00;;;;;-146.67;100.00;57155.34;5103792;28;10016;-82
2023/06/18 04:28:53;;;;;;;;;0.00;0.00;;;;;-146.67;100.00;57155.34;5103996;28;8809;-82
2023/06/18 04:31:18;;;;;;;;;0.00;0.00;;;;;-146.67;100.00;57155.34;5103890;28;8817;-82
2023/06/18 04:33:44;;;;;;;;;4.00;4.00;;;;;-146.67;100.00;57155.34;5105713;28;8820;-83
2023/06/18 04:36:10;;;;;;;;;0.00;0.00;;;;;-146.67;100.00;57155.34;5104601;28;9033;-82
2023/06/18 04:38:38;;;;;;;;;0.00;0.00;;;;;-146.67;100.00;57155.34;5105014;28;8809;-82
2023/06/18 04:41:03;;;;;;;;;0.00;0.00;;;;;-146.67;100.00;57155.34;5121785;28;8925;-82
2023/06/18 04:43:28;;;;;;;;;0.00;0.00;;;;;-146.67;100.00;57155.34;5125815;28;8814;-83
2023/06/18 04:45:54;;;;;;;;;0.00;0.00;;;;;-146.67;100.00;57155.34;5124158;28;9839;-82
2023/06/18 04:48:19;;;;;;;;;0.00;0.00;;;;;-146.67;100.00;57155.34;5124254;28;8807;-82
2023/06/18 04:50:45;;;;;;;;;0.00;0.00;;;;;-146.67;100.00;57155.34;5125107;28;8958;-83
2023/06/18 04:53:10;;;;;;;;;0.00;0.00;;;;;-146.67;100.00;57155.34;5123916;28;8838;-82
2023/06/18 04:55:39;;;;;;;;;0.00;0.00;;;;;-146.67;100.00;57155.34;5123848;28;9825;-82
2023/06/18 04:58:05;;;;;;;;;0.00;0.00;;;;;-146.67;100.00;57155.34;5125326;28;8738;-83
2023/06/18 05:00:33;;;;;;;;;0.00;0.00;;;;;-146.67;100.00;57155.34;5123828;28;8843;-83
2023/06/18 05:02:59;;;;;;;;;0.00;0.00;;;;;-146.67;100.00;57155.34;5125689;27;8844;-83
2023/06/18 05:05:24;;;;;;;;;0.00;0.00;;;;;-146.67;100.00;57155.34;5124631;28;8771;-83
2023/06/18 05:07:50;;;;;;;;;0.00;0.00;;;;;-146.67;100.00;57155.34;5125488;27;8870;-82
2023/06/18 05:10:16;;;;;;;;;0.00;0.00;;;;;-146.67;100.00;57155.34;5115920;28;8746;-82
2023/06/18 05:12:41;;;;;;;;;0.00;0.00;;;;;-146.67;100.00;57155.34;5137648;27;8821;-82
2023/06/18 05:15:07;;;;;;;;;0.00;0.00;;;;;-146.67;100.00;57155.34;5139538;27;9846;-83
2023/06/18 05:17:34;;;;;;;;;0.00;0.00;;;;;-146.67;100.00;57155.34;5104705;28;8870;-83
2023/06/18 05:20:01;;;;;;;;;0.00;0.00;;;;;-146.67;100.00;57155.34;5104615;28;8780;-83
2023/06/18 05:22:27;;;;;;;;;0.00;0.00;;;;;-146.67;100.00;57155.34;5137019;27;8957;-82
2023/06/18 05:24:52;;;;;;;;;0.00;0.00;;;;;-146.67;100.00;57155.34;5137272;27;9946;-83
2023/06/18 05:27:17;;;;;;;;;0.00;0.00;;;;;-146.67;100.00;57155.34;5137279;27;8908;-83
2023/06/18 05:29:43;;;;;;;;;0.00;0.00;;;;;-146.67;100.00;57155.34;5103256;28;8801;-83
2023/06/18 05:32:09;;;;;;;;;0.00;0.00;;;;;-146.67;100.00;57155.34;5137466;27;8805;-83
2023/06/18 05:34:35;;;;;;;;;0.00;0.00;;;;;-146.67;100.00;57155.34;5102748;28;10203;-83
2023/06/18 05:37:00;;;;;;;;;0.00;0.00;;;;;-146.67;100.00;57155.34;5136897;27;8980;-83
2023/06/18 05:39:26;;;;;;;;;0.00;0.00;;;;;-146.67;100.00;57155.34;5106624;28;8858;-83
2023/06/18 05:41:51;;;;;;;;;0.00;0.00;;;;;-146.67;100.00;57155.34;5123320;28;9042;-83
2023/06/18 05:44:17;;;;;;;;;0.00;0.00;;;;;-146.67;100.00;57155.34;5124544;28;8787;-83
2023/06/18 05:46:43;;;;;;;;;0.00;0.00;;;;;-146.67;100.00;57155.34;5123289;28;8858;-83
2023/06/18 05:49:09;;;;;;;;;0.00;0.00;;;;;-146.67;100.00;57155.34;5123056;28;8853;-83
2023/06/18 05:51:35;;;;;;;;;0.00;0.00;;;;;-146.67;100.00;57155.34;5124237;27;8795;-83
2023/06/18 05:54:00;;;;;;;;;0.00;0.00;;;;;-146.67;100.00;57155.34;5124304;28;8771;-83
2023/06/18 05:56:26;;;;;;;;;0.00;0.00;;;;;-146.67;100.00;57155.34;5123032;28;9692;-83
2023/06/18 05:58:51;;;;;;;;;0.00;0.00;;;;;-146.67;100.00;57155.34;5124690;28;8776;-83
2023/06/18 06:01:17;;;;;;;;;0.00;0.00;;;;;-146.67;100.00;57155.34;5124418;28;8811;-83
2023/06/18 06:03:42;;;;;;;;;0.00;0.00;;;;;-146.67;100.00;57155.34;5119353;28;10969;-83
2023/06/18 06:06:08;;;;;;;;;0.00;0.00;;;;;-146.67;100.00;57155.34;5117403;28;44748;-83
2023/06/18 06:08:33;;;;;;;;;0.00;0.00;;;;;-146.67;100.00;57155.34;5123456;28;8787;-83
2023/06/18 06:10:59;;;;;;;;;0.00;0.00;;;;;-146.67;100.00;57155.34;5119487;28;8840;-83
2023/06/18 06:13:24;;;;;;;;;0.00;0.00;;;;;-146.67;100.00;57155.34;5102485;28;9856;-83
2023/06/18 06:15:52;;;;;;;;;0.00;0.00;;;;;-146.67;100.00;57155.34;5115681;27;8897;-83
2023/06/18 06:18:22;;;;;;;;;0.00;0.00;;;;;-146.67;100.00;57155.34;5123149;28;8773;-83
2023/06/18 06:20:48;;;;;;;;;0.00;0.00;;;;;-146.67;100.00;57155.34;5123459;27;8843;-83
2023/06/18 06:23:13;;;;;;;;;0.00;0.00;;;;;-146.67;100.00;57155.34;5122471;28;10283;-83
2023/06/18 06:25:39;;;;;;;;;0.00;0.00;;;;;-146.67;100.00;57155.34;5114361;28;8821;-82
2023/06/18 06:28:05;;;;;;;;;0.00;0.00;;;;;-146.67;100.00;57155.34;5101626;28;8839;-83
2023/06/18 06:30:30;;;;;;;;;0.00;0.00;;;;;-146.67;100.00;57155.34;5119998;28;8895;-83
2023/06/18 06:32:55;;;;;;;;;0.00;0.00;;;;;-146.67;100.00;57155.34;5118333;28;61137;-82
2023/06/18 06:35:21;;;;;;;;;0.00;0.00;;;;;-146.67;100.00;57155.34;5122289;28;8827;-83
2023/06/18 06:37:46;;;;;;;;;0.00;0.00;;;;;-146.67;100.00;57155.34;5119932;28;42308;-82
2023/06/18 06:40:12;;;;;;;;;0.00;0.00;;;;;-146.67;100.00;57155.34;5117291;28;8960;-82
2023/06/18 06:42:37;;;;;;;;;0.00;0.00;;;;;-146.67;100.00;57155.34;5121390;28;38470;-82
2023/06/18 06:45:03;;;;;;;;;0.00;0.00;;;;;-146.67;100.00;57155.34;5122264;28;8799;-83
2023/06/18 06:47:28;;;;;;;;;0.00;0.00;;;;;-146.67;100.00;57155.34;5123874;28;8806;-82
2023/06/18 06:49:54;;;;;;;;;0.00;0.00;;;;;-146.67;100.00;57155.34;5123452;27;8826;-82
2023/06/18 06:52:19;;;;;;;;;0.00;0.00;;;;;-146.67;100.00;57155.34;5121843;28;10027;-82
2023/06/18 06:54:47;;;;;;;;;0.00;0.00;;;;;-146.67;100.00;57155.34;5118287;28;61887;-86
2023/06/18 06:57:12;;;;;;;;;0.00;0.00;;;;;-146.67;100.00;57155.34;5123545;27;8720;-81
2023/06/18 06:59:37;;;;;;;;;0.00;0.00;;;;;-146.67;39.07;72683.56;5109760;28;61240;-80
2023/06/18 07:02:03;;;;;;;;;0.00;0.00;;;;;-146.67;100.00;57155.34;5106213;28;63429;-81
2023/06/18 07:04:29;;;;;;;;;0.00;0.00;;;;;-146.67;38.62;72679.56;5080370;28;61758;-80
2023/06/18 07:06:54;;;;;;;;;0.00;0.00;;;;;-146.67;100.00;57155.34;5098973;27;61779;-81
2023/06/18 07:09:20;;;;;;;;;0.00;0.00;;;;;-146.67;100.00;57155.34;5123037;27;8787;-80
2023/06/18 07:11:46;;;;;;;;;0.00;0.00;;;;;-146.67;100.00;57155.34;5134354;27;10029;-80
2023/06/18 07:14:11;;;;;;;;;0.00;0.00;;;;;-146.67;100.00;57155.34;5101588;28;8883;-80
2023/06/18 07:16:36;;;;;;;;;0.00;0.00;;;;;-146.67;100.00;57155.34;5097159;28;62285;-80
2023/06/18 07:19:02;;;;;;;;;0.00;0.00;;;;;-146.67;100.00;57155.34;5116935;27;61891;-80
2023/06/18 07:21:27;;;;;;;;;0.00;0.00;;;;;-146.67;100.00;57155.34;5112174;27;61761;-80
2023/06/18 07:23:52;;;;;;;;;0.00;0.00;;;;;-146.67;39.23;72595.75;5122039;28;8891;-81
2023/06/18 07:26:18;;;;;;;;;0.00;0.00;;;;;-146.67;100.00;57155.34;5121934;28;43139;-81
2023/06/18 07:28:43;;;;;;;;;0.00;0.00;;;;;-146.67;100.00;57155.34;5122156;28;9531;-81
2023/06/18 07:31:09;;;;;;;;;0.00;0.00;;;;;-146.67;38.06;72585.78;5113962;28;61843;-77
2023/06/18 07:33:34;;;;;;;;;0.00;0.00;;;;;-146.67;37.90;72585.78;5110057;27;61793;-77
2023/06/18 07:35:59;;;;;;;;;0.00;0.00;;;;;-146.67;100.00;57155.34;5109321;28;61220;-77
2023/06/18 07:38:25;;;;;;;;;0.00;0.00;;;;;-146.67;38.28;72559.84;5121282;27;61131;-77
2023/06/18 07:40:50;;;;;;;;;0.00;0.00;;;;;-146.67;100.00;57155.34;5088741;27;61921;-77
2023/06/18 07:43:16;;;;;;;;;0.00;0.00;;;;;-146.67;100.00;57155.34;5124412;27;9371;-77
2023/06/18 07:45:42;;;;;;;;;0.00;0.00;;;;;-146.67;36.04;72531.91;5120990;28;44736;-77
2023/06/18 07:48:10;;;;;;;;;0.00;0.00;;;;;-146.67;37.41;72539.88;5084786;28;61942;-77
2023/06/18 07:50:36;;;;;;;;;0.00;0.00;;;;;-146.67;100.00;57155.34;5108171;27;62062;-78
2023/06/18 07:53:01;;;;;;;;;0.00;0.00;;;;;-146.67;100.00;57155.34;5126743;27;8810;-78
2023/06/18 07:55:27;;;;;;;;;0.00;0.00;;;;;-146.67;100.00;57155.34;5112392;27;8782;-78
2023/06/18 07:57:52;;;;;;;;;0.00;0.00;;;;;-146.67;100.00;57155.34;5110777;27;8812;-78
2023/06/18 08:00:18;;;;;;;;;0.00;0.00;;;;;-146.67;100.00;57155.34;5145168;27;10122;-78
2023/06/18 08:02:44;;;;;;;;;0.00;0.00;;;;;-146.67;37.21;72535.88;5145604;27;44755;-78
2023/06/18 08:05:10;;;;;;;;;0.00;0.00;;;;;-146.67;37.44;72545.88;5096125;27;61834;-77
2023/06/18 08:07:36;;;;;;;;;0.00;0.00;;;;;-146.67;37.85;72547.84;5089016;27;62187;-77
2023/06/18 08:10:01;;;;;;;;;0.00;0.00;;;;;-146.67;37.64;72541.88;5096057;27;64380;-77
2023/06/18 08:12:27;;;;;;;;;0.00;0.00;;;;;-146.67;100.00;57155.34;5080641;27;61772;-82
2023/06/18 08:14:52;;;;;;;;;0.00;0.00;;;;;-146.67;100.00;57155.34;5093201;28;61699;-85
2023/06/18 08:17:18;;;;;;;;;0.00;0.00;;;;;-146.67;37.17;72529.91;5089379;27;61767;-85
2023/06/18 08:19:45;;;;;;;;;0.00;0.00;;;;;-146.67;100.00;57155.34;5096418;27;63517;-86
2023/06/18 08:22:17;;;;;;;;;0.00;0.00;;;;;-146.67;100.00;57155.34;5127573;27;8851;-85
2023/06/18 08:24:43;;;;;;;;;0.00;0.00;;;;;-146.67;100.00;57155.34;5130484;27;8921;-85
2023/06/18 08:27:09;;;;;;;;;0.00;0.00;;;;;-146.67;100.00;57155.34;5133071;27;8818;-83
2023/06/18 08:29:35;;;;;;;;;0.00;0.00;;;;;-146.67;100.00;57155.34;5139168;27;9876;-85
2023/06/18 08:32:04;;;;;;;;;0.00;0.00;;;;;-146.67;100.00;57155.34;5141489;27;8879;-85
2023/06/18 08:34:42;;;;;;;;;0.00;0.00;;;;;-146.67;100.00;57155.34;5129187;27;8831;-85
2023/06/18 08:37:09;;;;;;;;;0.00;0.00;;;;;-146.67;100.00;57155.34;5131043;27;9765;-85
2023/06/18 08:39:36;;;;;;;;;0.00;0.00;;;;;-146.67;100.00;57155.34;5132926;27;10057;-86
2023/06/18 08:42:01;;;;;;;;;0.00;0.00;;;;;-146.67;100.00;57155.34;5129008;27;8829;-86
2023/06/18 08:44:29;;;;;;;;;0.00;0.00;;;;;-146.67;100.00;57155.34;5130601;27;8816;-86
2023/06/18 08:47:01;;;;;;;;;0.00;0.00;;;;;-146.67;100.00;57155.34;5133664;27;8765;-80
2023/06/18 08:49:27;;;;;;;;;0.00;0.00;;;;;-146.67;100.00;57155.34;5132787;27;8769;-79
2023/06/18 08:52:07;;;;;;;;;0.00;0.00;;;;;-146.67;100.00;57155.34;5134211;27;8822;-83
2023/06/18 08:54:34;;;;;;;;;0.00;0.00;;;;;-146.67;100.00;57155.34;5131073;27;8854;-82
2023/06/18 08:57:14;;;;;;;;;0.00;0.00;;;;;-146.67;100.00;57155.34;5132936;27;8873;-83
2023/06/18 08:59:42;;;;;;;;;0.00;0.00;;;;;-146.67;100.00;57155.34;5132558;27;10113;-83
2023/06/18 09:02:10;;;;;;;;;0.00;0.00;;;;;-146.67;100.00;57155.34;5130529;27;8761;-82
2023/06/18 09:04:37;;;;;;;;;0.00;0.00;;;;;-146.67;100.00;57155.34;5139252;27;8745;-83
2023/06/18 09:07:04;;;;;;;;;0.00;0.00;;;;;-146.67;100.00;57155.34;5139574;27;8758;-81
2023/06/18 09:09:30;;;;;;;;;0.00;0.00;;;;;-146.67;100.00;57155.34;5124968;27;10160;-83
2023/06/18 09:11:59;;;;;;;;;1.00;1.00;;;;;-146.67;100.00;57155.34;5135878;27;9728;-83
2023/06/18 09:14:24;;;;;;;;;0.00;0.00;;;;;-146.67;100.00;57155.34;5123539;28;8797;-83
2023/06/18 09:16:51;;;;;;;;;0.00;0.00;;;;;-146.67;100.00;57155.34;5123968;27;8801;-84
2023/06/18 09:19:18;;;;;;;;;0.00;0.00;;;;;-146.67;100.00;57155.34;5123635;27;11113;-82
2023/06/18 09:21:43;;;;;;;;;0.00;0.00;;;;;-146.67;100.00;57155.34;5124614;27;8822;-82
2023/06/18 09:24:15;;;;;;;;;0.00;0.00;;;;;-146.67;33.27;72304.41;5098911;27;62272;-81
2023/06/18 09:26:40;;;;;;;;;0.00;0.00;;;;;-146.67;33.29;72284.47;5082239;28;61680;-81
2023/06/18 09:29:07;;;;;;;;;0.00;0.00;;;;;-146.67;100.00;57155.34;5120150;27;62026;-83
2023/06/18 09:31:41;;;;;;;;;0.00;0.00;;;;;-146.67;100.00;57155.34;5122741;28;8787;-83
2023/06/18 09:34:16;;;;;;;;;0.00;0.00;;;;;-146.67;100.00;57155.34;5122727;27;9240;-82
2023/06/18 09:36:43;;;;;;;;;0.00;0.00;;;;;-146.67;100.00;57155.34;5131209;27;8793;-81
2023/06/18 09:39:19;;;;;;;;;0.00;0.00;;;;;-146.67;100.00;57155.34;5131514;27;10016;-81
2023/06/18 09:41:46;;;;;;;;;0.00;0.00;;;;;-146.67;100.00;57155.34;5131668;27;8777;-82
2023/06/18 09:44:14;;;;;;;;;0.00;0.00;;;;;-146.67;100.00;57155.34;5125253;27;8751;-90
2023/06/18 09:46:46;;;;;;;;;0.00;0.00;;;;;-146.67;100.00;57155.34;5122711;28;9687;-93
2023/06/18 09:49:17;;;;;;;;;0.00;0.00;;;;;-146.67;100.00;57155.34;5134222;27;61242;-90
2023/06/18 09:51:43;;;;;;;;;0.00;0.00;;;;;-146.67;100.00;57155.34;5131262;27;8803;-91
2023/06/18 09:54:09;;;;;;;;;0.00;0.00;;;;;-146.67;100.00;57155.34;5123380;28;8799;-80
2023/06/18 09:56:35;;;;;;;;;0.00;0.00;;;;;-146.67;100.00;57155.34;5123356;28;8871;-88
2023/06/18 09:59:03;;;;;;;;;0.00;0.00;;;;;-146.67;100.00;57155.34;5137536;27;10030;-87
2023/06/18 10:01:29;;;;;;;;;0.00;0.00;;;;;-146.67;100.00;57155.34;5101756;28;44705;-87
2023/06/18 10:03:55;;;;;;;;;0.00;0.00;;;;;-146.67;100.00;57155.34;5142167;27;8737;-86
2023/06/18 10:06:23;;;;;;;;;0.00;0.00;;;;;-146.67;100.00;57155.34;5140273;27;61496;-87
2023/06/18 10:08:56;;;;;;;;;0.00;0.00;;;;;-146.67;29.80;72041.03;5141266;27;61302;-82
2023/06/18 10:11:21;;;;;;;;;0.00;0.00;;;;;-146.67;29.50;72043.03;5116004;27;61879;-82
2023/06/18 10:13:55;;;;;;;;;0.00;0.00;;;;;-146.67;30.27;72051.00;5102598;27;61977;-80
2023/06/18 10:16:22;;;;;;;;;0.00;0.00;;;;;-146.67;28.78;72066.97;5098653;27;62133;-80
2023/06/18 10:19:21;;;;;;;;;0.00;0.00;;;;;-146.67;29.13;72082.94;5080622;27;62241;-80
2023/06/18 10:21:54;;;;;;;;;0.00;0.00;;;;;-146.67;29.72;72074.97;5091338;27;62128;-81
2023/06/18 10:24:22;;;;;;;;;0.00;0.00;;;;;-146.67;29.47;72074.97;5082659;27;61948;-81
2023/06/18 10:26:48;;;;;;;;;0.00;0.00;;;;;-146.67;29.32;72076.94;5078362;28;62068;-83
2023/06/18 10:29:15;;;;;;;;;0.00;0.00;;;;;-146.67;29.52;72037.06;5099472;28;63040;-80
2023/06/18 10:31:41;;;;;;;;;0.00;0.00;;;;;-146.67;100.00;57155.34;5115960;28;61298;-79
2023/06/18 10:34:07;;;;;;;;;0.00;0.00;;;;;-146.67;100.00;57155.34;5110207;28;61909;-81
2023/06/18 10:36:33;;;;;;;;;12.00;12.00;;;;;-146.67;100.00;57155.34;5119516;28;46065;-83
2023/06/18 10:38:59;;;;;;;;;0.00;0.00;;;;;-146.67;100.00;57155.34;5128232;27;61168;-82
2023/06/18 10:41:27;;;;;;;;;0.00;0.00;;;;;-146.67;100.00;57155.34;5121849;28;8819;-80
2023/06/18 10:43:55;;;;;;;;;0.00;0.00;;;;;-146.67;100.00;57155.34;5123814;27;8779;-80
2023/06/18 10:46:24;;;;;;;;;0.00;0.00;;;;;-146.67;100.00;57155.34;5123195;28;8771;-79
2023/06/18 10:49:16;;;;;;;;;0.00;0.00;;;;;-146.67;100.00;57155.34;5116781;28;10009;-77
2023/06/18 10:52:12;;;;;;;;;0.00;0.00;;;;;-146.67;100.00;57155.34;5122015;28;8815;-79
2023/06/18 10:54:38;;;;;;;;;0.00;0.00;;;;;-146.67;100.00;57155.34;5122171;28;8768;-80
2023/06/18 10:57:04;;;;;;;;;0.00;0.00;;;;;-146.67;100.00;57155.34;5123752;28;8786;-79
2023/06/18 10:59:34;;;;;;;;;0.00;0.00;;;;;-146.67;100.00;57155.34;5114678;28;8766;-80
2023/06/18 11:02:00;;;;;;;;;0.00;0.00;;;;;-146.67;100.00;57155.34;5095423;28;62046;-78
2023/06/18 11:04:30;;;;;;;;;0.00;0.00;;;;;-146.67;28.57;71947.25;5127643;27;8810;-79
2023/06/18 11:07:14;;;;;;;;;0.00;0.00;;;;;-146.67;100.00;57155.34;5100579;28;62124;-80
2023/06/18 11:10:30;;;;;;;;;0.00;0.00;;;;;-146.67;28.82;71985.19;5110430;28;61191;-80
2023/06/18 11:12:56;;;;;;;;;0.00;0.00;;;;;-146.67;28.88;71999.13;5054582;28;61925;-79
2023/06/18 11:15:21;;;;;;;;;0.00;0.00;;;;;-146.67;28.70;72005.13;5071597;28;62121;-80